sensor_id;sensor_type;location;lat;lon;timestamp;temperature;humidity
48648;DHT22;34437;-33.956;151.076;2022-12-26T00:00:57;27.30;65.70
48648;DHT22;34437;-33.956;151.076;2022-12-26T00:03:19;27.40;66.40
48648;DHT22;34437;-33.956;151.076;2022-12-26T00:05:42;27.30;65.60
48648;DHT22;34437;-33.956;151.076;2022-12-26T00:08:04;27.30;65.50
48648;DHT22;34437;-33.956;151.076;2022-12-26T00:10:28;27.30;65.20
48648;DHT22;34437;-33.956;151.076;2022-12-26T00:12:51;27.40;65.10
48648;DHT22;34437;-33.956;151.076;2022-12-26T00:15:13;27.40;64.90
48648;DHT22;34437;-33.956;151.076;2022-12-26T00:17:35;27.40;64.80
48648;DHT22;34437;-33.956;151.076;2022-12-26T00:19:58;27.40;64.60
48648;DHT22;34437;-33.956;151.076;2022-12-26T00:22:20;27.40;64.60
48648;DHT22;34437;-33.956;151.076;2022-12-26T00:24:43;27.40;64.40
48648;DHT22;34437;-33.956;151.076;2022-12-26T00:27:05;27.40;64.40
48648;DHT22;34437;-33.956;151.076;2022-12-26T00:29:27;27.40;64.20
48648;DHT22;34437;-33.956;151.076;2022-12-26T00:31:50;27.40;64.10
48648;DHT22;34437;-33.956;151.076;2022-12-26T00:34:12;27.40;64.00
48648;DHT22;34437;-33.956;151.076;2022-12-26T00:36:34;27.40;64.00
48648;DHT22;34437;-33.956;151.076;2022-12-26T00:38:58;27.50;63.90
48648;DHT22;34437;-33.956;151.076;2022-12-26T00:41:22;27.50;63.80
48648;DHT22;34437;-33.956;151.076;2022-12-26T00:43:44;27.50;63.90
48648;DHT22;34437;-33.956;151.076;2022-12-26T00:46:07;27.50;63.80
48648;DHT22;34437;-33.956;151.076;2022-12-26T00:48:30;27.50;63.60
48648;DHT22;34437;-33.956;151.076;2022-12-26T00:50:53;27.50;63.70
48648;DHT22;34437;-33.956;151.076;2022-12-26T00:53:15;27.50;63.60
48648;DHT22;34437;-33.956;151.076;2022-12-26T10:14:31;31.00;51.10
48648;DHT22;34437;-33.956;151.076;2022-12-26T10:19:33;31.00;51.40
48648;DHT22;34437;-33.956;151.076;2022-12-26T10:25:19;31.00;51.70
48648;DHT22;34437;-33.956;151.076;2022-12-26T10:27:46;31.00;51.20
48648;DHT22;34437;-33.956;151.076;2022-12-26T10:30:22;31.00;51.90
48648;DHT22;34437;-33.956;151.076;2022-12-26T10:32:52;31.00;52.00
48648;DHT22;34437;-33.956;151.076;2022-12-26T10:35:36;31.00;52.00
48648;DHT22;34437;-33.956;151.076;2022-12-26T10:38:27;31.00;52.10
48648;DHT22;34437;-33.956;151.076;2022-12-26T10:40:53;31.00;52.10
48648;DHT22;34437;-33.956;151.076;2022-12-26T10:48:15;31.00;52.30
48648;DHT22;34437;-33.956;151.076;2022-12-26T10:50:38;31.00;52.40
48648;DHT22;34437;-33.956;151.076;2022-12-26T10:53:09;31.00;52.50
48648;DHT22;34437;-33.956;151.076;2022-12-26T10:55:34;31.00;52.50
48648;DHT22;34437;-33.956;151.076;2022-12-26T10:58:04;31.00;52.50
48648;DHT22;34437;-33.956;151.076;2022-12-26T11:00:28;30.90;52.50
48648;DHT22;34437;-33.956;151.076;2022-12-26T11:03:06;30.90;52.50
48648;DHT22;34437;-33.956;151.076;2022-12-26T11:05:29;31.00;52.60
48648;DHT22;34437;-33.956;151.076;2022-12-26T11:07:56;30.90;52.60
48648;DHT22;34437;-33.956;151.076;2022-12-26T11:10:28;30.90;52.70
48648;DHT22;34437;-33.956;151.076;2022-12-26T11:13:02;30.90;52.70
48648;DHT22;34437;-33.956;151.076;2022-12-26T11:15:29;30.90;52.70
48648;DHT22;34437;-33.956;151.076;2022-12-26T11:17:53;30.90;52.80
48648;DHT22;34437;-33.956;151.076;2022-12-26T11:20:29;30.90;52.80
48648;DHT22;34437;-33.956;151.076;2022-12-26T11:22:52;30.90;52.90
48648;DHT22;34437;-33.956;151.076;2022-12-26T11:25:17;30.90;52.90
48648;DHT22;34437;-33.956;151.076;2022-12-26T11:30:58;30.80;52.90
48648;DHT22;34437;-33.956;151.076;2022-12-26T11:33:29;30.80;53.00
48648;DHT22;34437;-33.956;151.076;2022-12-26T11:41:38;30.80;53.10
48648;DHT22;34437;-33.956;151.076;2022-12-26T11:46:54;30.70;53.10
48648;DHT22;34437;-33.956;151.076;2022-12-26T11:51:48;30.70;53.20
48648;DHT22;34437;-33.956;151.076;2022-12-26T11:54:27;30.70;53.30
48648;DHT22;34437;-33.956;151.076;2022-12-26T11:59:23;30.70;53.30
48648;DHT22;34437;-33.956;151.076;2022-12-26T12:01:47;30.70;53.40
48648;DHT22;34437;-33.956;151.076;2022-12-26T12:04:11;30.70;53.40
48648;DHT22;34437;-33.956;151.076;2022-12-26T12:06:37;30.60;53.40
48648;DHT22;34437;-33.956;151.076;2022-12-26T12:09:30;30.60;53.60
48648;DHT22;34437;-33.956;151.076;2022-12-26T12:12:22;30.60;53.90
48648;DHT22;34437;-33.956;151.076;2022-12-26T12:15:13;30.60;54.00
48648;DHT22;34437;-33.956;151.076;2022-12-26T12:17:54;30.60;54.20
48648;DHT22;34437;-33.956;151.076;2022-12-26T12:20:39;30.60;54.30
48648;DHT22;34437;-33.956;151.076;2022-12-26T12:31:12;30.60;55.00
48648;DHT22;34437;-33.956;151.076;2022-12-26T12:36:45;30.60;55.30
48648;DHT22;34437;-33.956;151.076;2022-12-26T12:45:18;30.60;55.70
48648;DHT22;34437;-33.956;151.076;2022-12-26T12:48:00;30.60;55.80
48648;DHT22;34437;-33.956;151.076;2022-12-26T12:56:12;30.60;56.10
48648;DHT22;34437;-33.956;151.076;2022-12-26T13:01:33;30.60;56.20
48648;DHT22;34437;-33.956;151.076;2022-12-26T13:06:38;30.60;56.20
48648;DHT22;34437;-33.956;151.076;2022-12-26T13:09:14;30.60;56.00
48648;DHT22;34437;-33.956;151.076;2022-12-26T13:11:49;30.50;55.90
48648;DHT22;34437;-33.956;151.076;2022-12-26T13:14:32;30.50;55.80
48648;DHT22;34437;-33.956;151.076;2022-12-26T13:19:43;30.50;55.80
48648;DHT22;34437;-33.956;151.076;2022-12-26T13:22:13;30.50;55.80
48648;DHT22;34437;-33.956;151.076;2022-12-26T13:24:58;30.50;55.70
48648;DHT22;34437;-33.956;151.076;2022-12-26T13:27:32;30.50;55.70
48648;DHT22;34437;-33.956;151.076;2022-12-26T13:29:57;30.40;55.70
48648;DHT22;34437;-33.956;151.076;2022-12-26T13:32:23;30.40;55.70
48648;DHT22;34437;-33.956;151.076;2022-12-26T13:34:56;30.40;55.70
48648;DHT22;34437;-33.956;151.076;2022-12-26T13:40:28;30.40;55.90
48648;DHT22;34437;-33.956;151.076;2022-12-26T13:43:17;30.40;56.00
48648;DHT22;34437;-33.956;151.076;2022-12-26T13:45:56;30.30;55.90
48648;DHT22;34437;-33.956;151.076;2022-12-26T13:50:56;30.30;55.80
48648;DHT22;34437;-33.956;151.076;2022-12-26T13:53:31;30.30;55.80
48648;DHT22;34437;-33.956;151.076;2022-12-26T13:55:55;30.30;55.90
48648;DHT22;34437;-33.956;151.076;2022-12-26T14:10:23;30.20;55.90
48648;DHT22;34437;-33.956;151.076;2022-12-26T14:19:10;30.10;55.80
48648;DHT22;34437;-33.956;151.076;2022-12-26T14:45:51;30.00;56.00
48648;DHT22;34437;-33.956;151.076;2022-12-26T14:55:51;29.90;56.10
48648;DHT22;34437;-33.956;151.076;2022-12-26T14:58:42;29.80;56.00
48648;DHT22;34437;-33.956;151.076;2022-12-26T15:18:27;29.70;56.20
48648;DHT22;34437;-33.956;151.076;2022-12-26T15:29:44;29.60;56.10
48648;DHT22;34437;-33.956;151.076;2022-12-26T15:32:26;29.60;56.10
48648;DHT22;34437;-33.956;151.076;2022-12-26T15:59:10;29.20;56.70
48648;DHT22;34437;-33.956;151.076;2022-12-26T16:01:45;29.20;56.80
48648;DHT22;34437;-33.956;151.076;2022-12-26T16:04:37;29.10;56.70
48648;DHT22;34437;-33.956;151.076;2022-12-26T16:12:23;29.00;56.90
48648;DHT22;34437;-33.956;151.076;2022-12-26T16:14:46;29.00;56.90
48648;DHT22;34437;-33.956;151.076;2022-12-26T16:17:20;28.90;57.10
48648;DHT22;34437;-33.956;151.076;2022-12-26T16:19:45;28.90;57.20
48648;DHT22;34437;-33.956;151.076;2022-12-26T16:22:53;28.90;57.30
48648;DHT22;34437;-33.956;151.076;2022-12-26T16:25:08;28.90;57.30
48648;DHT22;34437;-33.956;151.076;2022-12-26T16:27:31;28.80;57.40
48648;DHT22;34437;-33.956;151.076;2022-12-26T16:30:02;28.80;58.10
48648;DHT22;34437;-33.956;151.076;2022-12-26T16:32:33;28.80;57.50
48648;DHT22;34437;-33.956;151.076;2022-12-26T16:34:57;28.80;57.70
48648;DHT22;34437;-33.956;151.076;2022-12-26T16:37:23;28.80;57.80
48648;DHT22;34437;-33.956;151.076;2022-12-26T16:40:11;28.70;57.80
48648;DHT22;34437;-33.956;151.076;2022-12-26T16:42:41;28.70;57.80
48648;DHT22;34437;-33.956;151.076;2022-12-26T16:45:15;28.70;57.90
48648;DHT22;34437;-33.956;151.076;2022-12-26T16:47:39;28.70;58.00
48648;DHT22;34437;-33.956;151.076;2022-12-26T16:50:03;28.70;58.00
48648;DHT22;34437;-33.956;151.076;2022-12-26T16:52:33;28.60;58.10
48648;DHT22;34437;-33.956;151.076;2022-12-26T16:54:56;28.60;58.20
48648;DHT22;34437;-33.956;151.076;2022-12-26T16:57:19;28.50;58.20
48648;DHT22;34437;-33.956;151.076;2022-12-26T16:59:53;28.50;58.30
48648;DHT22;34437;-33.956;151.076;2022-12-26T17:02:25;28.50;58.30
48648;DHT22;34437;-33.956;151.076;2022-12-26T17:05:01;28.50;58.40
48648;DHT22;34437;-33.956;151.076;2022-12-26T17:07:24;28.40;58.40
48648;DHT22;34437;-33.956;151.076;2022-12-26T17:09:53;28.40;58.40
48648;DHT22;34437;-33.956;151.076;2022-12-26T17:12:30;28.40;58.30
48648;DHT22;34437;-33.956;151.076;2022-12-26T17:14:55;28.40;58.30
48648;DHT22;34437;-33.956;151.076;2022-12-26T17:19:43;28.30;58.20
48648;DHT22;34437;-33.956;151.076;2022-12-26T17:24:41;28.30;58.20
48648;DHT22;34437;-33.956;151.076;2022-12-26T17:27:09;28.20;58.20
48648;DHT22;34437;-33.956;151.076;2022-12-26T17:29:48;28.20;58.10
48648;DHT22;34437;-33.956;151.076;2022-12-26T17:34:54;28.20;58.20
48648;DHT22;34437;-33.956;151.076;2022-12-26T17:37:21;28.20;58.20
48648;DHT22;34437;-33.956;151.076;2022-12-26T17:39:53;28.10;58.10
48648;DHT22;34437;-33.956;151.076;2022-12-26T17:42:17;28.10;58.10
48648;DHT22;34437;-33.956;151.076;2022-12-26T17:44:40;28.00;58.00
48648;DHT22;34437;-33.956;151.076;2022-12-26T17:49:36;28.00;58.80
48648;DHT22;34437;-33.956;151.076;2022-12-26T17:51:58;28.00;58.20
48648;DHT22;34437;-33.956;151.076;2022-12-26T17:54:21;27.90;58.30
48648;DHT22;34437;-33.956;151.076;2022-12-26T17:56:43;27.90;58.30
48648;DHT22;34437;-33.956;151.076;2022-12-26T17:59:12;27.90;58.30
48648;DHT22;34437;-33.956;151.076;2022-12-26T18:01:35;27.90;58.30
48648;DHT22;34437;-33.956;151.076;2022-12-26T18:03:57;27.90;58.40
48648;DHT22;34437;-33.956;151.076;2022-12-26T18:06:19;27.90;58.40
48648;DHT22;34437;-33.956;151.076;2022-12-26T18:08:44;27.80;58.40
48648;DHT22;34437;-33.956;151.076;2022-12-26T18:11:11;27.80;58.40
48648;DHT22;34437;-33.956;151.076;2022-12-26T18:13:34;27.80;58.90
48648;DHT22;34437;-33.956;151.076;2022-12-26T18:15:57;27.70;58.50
48648;DHT22;34437;-33.956;151.076;2022-12-26T18:20:42;27.70;58.60
48648;DHT22;34437;-33.956;151.076;2022-12-26T18:23:07;27.70;58.70
48648;DHT22;34437;-33.956;151.076;2022-12-26T18:25:31;27.70;58.60
48648;DHT22;34437;-33.956;151.076;2022-12-26T18:27:53;27.60;58.50
48648;DHT22;34437;-33.956;151.076;2022-12-26T18:30:20;27.60;58.50
48648;DHT22;34437;-33.956;151.076;2022-12-26T18:32:43;27.60;58.60
48648;DHT22;34437;-33.956;151.076;2022-12-26T18:35:05;27.50;58.60
48648;DHT22;34437;-33.956;151.076;2022-12-26T18:37:29;27.50;58.60
48648;DHT22;34437;-33.956;151.076;2022-12-26T18:39:51;27.50;58.60
48648;DHT22;34437;-33.956;151.076;2022-12-26T18:42:15;27.40;58.60
48648;DHT22;34437;-33.956;151.076;2022-12-26T18:44:38;27.40;58.60
48648;DHT22;34437;-33.956;151.076;2022-12-26T18:47:00;27.40;58.60
48648;DHT22;34437;-33.956;151.076;2022-12-26T18:49:23;27.40;58.60
48648;DHT22;34437;-33.956;151.076;2022-12-26T18:51:46;27.30;58.60
48648;DHT22;34437;-33.956;151.076;2022-12-26T18:54:08;27.30;58.60
48648;DHT22;34437;-33.956;151.076;2022-12-26T18:56:31;27.30;58.70
48648;DHT22;34437;-33.956;151.076;2022-12-26T18:58:53;27.30;58.70
48648;DHT22;34437;-33.956;151.076;2022-12-26T19:01:17;27.30;58.70
48648;DHT22;34437;-33.956;151.076;2022-12-26T19:03:40;27.30;58.80
48648;DHT22;34437;-33.956;151.076;2022-12-26T19:06:03;27.20;58.70
48648;DHT22;34437;-33.956;151.076;2022-12-26T19:08:26;27.20;58.70
48648;DHT22;34437;-33.956;151.076;2022-12-26T19:10:48;27.20;58.80
48648;DHT22;34437;-33.956;151.076;2022-12-26T19:13:11;27.20;58.80
48648;DHT22;34437;-33.956;151.076;2022-12-26T19:15:34;27.10;58.80
48648;DHT22;34437;-33.956;151.076;2022-12-26T19:17:57;27.10;58.90
48648;DHT22;34437;-33.956;151.076;2022-12-26T19:20:22;27.10;58.90
48648;DHT22;34437;-33.956;151.076;2022-12-26T19:22:45;27.00;58.90
48648;DHT22;34437;-33.956;151.076;2022-12-26T19:25:08;27.00;59.00
48648;DHT22;34437;-33.956;151.076;2022-12-26T19:27:30;27.00;59.10
48648;DHT22;34437;-33.956;151.076;2022-12-26T19:29:53;27.00;59.20
48648;DHT22;34437;-33.956;151.076;2022-12-26T19:32:15;27.00;59.30
48648;DHT22;34437;-33.956;151.076;2022-12-26T19:34:37;26.90;59.40
48648;DHT22;34437;-33.956;151.076;2022-12-26T19:37:01;26.90;59.70
48648;DHT22;34437;-33.956;151.076;2022-12-26T19:39:23;26.90;59.80
48648;DHT22;34437;-33.956;151.076;2022-12-26T19:41:46;26.90;60.20
48648;DHT22;34437;-33.956;151.076;2022-12-26T19:44:08;26.90;60.50
48648;DHT22;34437;-33.956;151.076;2022-12-26T19:46:31;26.90;60.50
48648;DHT22;34437;-33.956;151.076;2022-12-26T19:48:54;26.80;60.40
48648;DHT22;34437;-33.956;151.076;2022-12-26T19:51:17;26.80;60.40
48648;DHT22;34437;-33.956;151.076;2022-12-26T19:53:41;26.80;60.40
48648;DHT22;34437;-33.956;151.076;2022-12-26T19:58:37;26.80;60.40
48648;DHT22;34437;-33.956;151.076;2022-12-26T20:01:07;26.80;60.50
48648;DHT22;34437;-33.956;151.076;2022-12-26T20:03:30;26.80;60.60
48648;DHT22;34437;-33.956;151.076;2022-12-26T20:05:52;26.80;60.70
48648;DHT22;34437;-33.956;151.076;2022-12-26T20:08:14;26.80;60.70
48648;DHT22;34437;-33.956;151.076;2022-12-26T20:10:37;26.80;60.80
48648;DHT22;34437;-33.956;151.076;2022-12-26T20:12:59;26.80;60.90
48648;DHT22;34437;-33.956;151.076;2022-12-26T20:15:22;26.80;61.00
48648;DHT22;34437;-33.956;151.076;2022-12-26T20:17:44;26.80;61.20
48648;DHT22;34437;-33.956;151.076;2022-12-26T20:20:07;26.80;62.20
48648;DHT22;34437;-33.956;151.076;2022-12-26T20:22:30;26.80;61.80
48648;DHT22;34437;-33.956;151.076;2022-12-26T20:24:52;26.80;61.80
48648;DHT22;34437;-33.956;151.076;2022-12-26T20:27:14;26.80;61.90
48648;DHT22;34437;-33.956;151.076;2022-12-26T20:29:38;26.80;61.90
48648;DHT22;34437;-33.956;151.076;2022-12-26T20:32:00;26.80;62.00
48648;DHT22;34437;-33.956;151.076;2022-12-26T20:34:23;26.80;62.00
48648;DHT22;34437;-33.956;151.076;2022-12-26T20:36:45;26.80;62.10
48648;DHT22;34437;-33.956;151.076;2022-12-26T20:39:13;26.80;62.20
48648;DHT22;34437;-33.956;151.076;2022-12-26T20:41:35;26.80;62.20
48648;DHT22;34437;-33.956;151.076;2022-12-26T20:43:58;26.80;62.30
48648;DHT22;34437;-33.956;151.076;2022-12-26T20:46:23;26.80;62.50
48648;DHT22;34437;-33.956;151.076;2022-12-26T20:48:47;26.80;62.80
48648;DHT22;34437;-33.956;151.076;2022-12-26T20:51:16;26.80;62.40
48648;DHT22;34437;-33.956;151.076;2022-12-26T20:53:39;26.80;62.20
48648;DHT22;34437;-33.956;151.076;2022-12-26T20:56:01;26.80;62.20
48648;DHT22;34437;-33.956;151.076;2022-12-26T20:58:27;26.80;62.30
48648;DHT22;34437;-33.956;151.076;2022-12-26T21:01:06;26.80;62.30
48648;DHT22;34437;-33.956;151.076;2022-12-26T21:03:29;26.80;62.20
48648;DHT22;34437;-33.956;151.076;2022-12-26T21:05:52;26.80;61.80
48648;DHT22;34437;-33.956;151.076;2022-12-26T21:08:15;26.80;62.20
48648;DHT22;34437;-33.956;151.076;2022-12-26T21:10:37;26.80;62.20
48648;DHT22;34437;-33.956;151.076;2022-12-26T21:13:00;26.80;62.10
48648;DHT22;34437;-33.956;151.076;2022-12-26T21:15:22;26.90;62.10
48648;DHT22;34437;-33.956;151.076;2022-12-26T21:17:45;26.90;62.00
48648;DHT22;34437;-33.956;151.076;2022-12-26T21:20:07;26.90;62.00
48648;DHT22;34437;-33.956;151.076;2022-12-26T21:22:30;26.90;62.00
48648;DHT22;34437;-33.956;151.076;2022-12-26T21:24:52;26.80;61.90
48648;DHT22;34437;-33.956;151.076;2022-12-26T21:27:15;26.90;61.90
48648;DHT22;34437;-33.956;151.076;2022-12-26T21:29:37;26.90;62.40
48648;DHT22;34437;-33.956;151.076;2022-12-26T21:32:01;26.90;61.70
48648;DHT22;34437;-33.956;151.076;2022-12-26T21:34:26;26.90;61.70
48648;DHT22;34437;-33.956;151.076;2022-12-26T21:36:49;26.90;61.70
48648;DHT22;34437;-33.956;151.076;2022-12-26T21:39:31;26.90;61.70
48648;DHT22;34437;-33.956;151.076;2022-12-26T21:41:53;26.90;61.50
48648;DHT22;34437;-33.956;151.076;2022-12-26T21:44:15;26.90;61.60
48648;DHT22;34437;-33.956;151.076;2022-12-26T21:46:38;26.90;61.60
48648;DHT22;34437;-33.956;151.076;2022-12-26T21:49:00;26.90;61.80
48648;DHT22;34437;-33.956;151.076;2022-12-26T21:51:23;26.90;61.60
48648;DHT22;34437;-33.956;151.076;2022-12-26T21:53:46;27.00;61.60
48648;DHT22;34437;-33.956;151.076;2022-12-26T21:56:10;27.00;61.60
48648;DHT22;34437;-33.956;151.076;2022-12-26T21:58:33;27.00;61.40
48648;DHT22;34437;-33.956;151.076;2022-12-26T22:01:20;27.00;61.20
48648;DHT22;34437;-33.956;151.076;2022-12-26T22:03:43;27.00;61.00
48648;DHT22;34437;-33.956;151.076;2022-12-26T22:06:24;27.00;61.70
48648;DHT22;34437;-33.956;151.076;2022-12-26T22:08:46;27.00;61.00
48648;DHT22;34437;-33.956;151.076;2022-12-26T22:11:16;27.00;60.90
48648;DHT22;34437;-33.956;151.076;2022-12-26T22:13:56;27.00;60.70
48648;DHT22;34437;-33.956;151.076;2022-12-26T22:16:19;27.00;60.60
48648;DHT22;34437;-33.956;151.076;2022-12-26T22:18:44;27.00;60.70
48648;DHT22;34437;-33.956;151.076;2022-12-26T22:21:09;27.00;60.70
48648;DHT22;34437;-33.956;151.076;2022-12-26T22:23:32;27.00;60.70
48648;DHT22;34437;-33.956;151.076;2022-12-26T22:25:55;27.00;60.80
48648;DHT22;34437;-33.956;151.076;2022-12-26T22:28:18;27.00;60.90
48648;DHT22;34437;-33.956;151.076;2022-12-26T22:30:45;27.00;61.10
48648;DHT22;34437;-33.956;151.076;2022-12-26T22:33:09;27.00;61.50
48648;DHT22;34437;-33.956;151.076;2022-12-26T22:35:32;27.10;61.90
48648;DHT22;34437;-33.956;151.076;2022-12-26T22:37:57;27.10;61.00
48648;DHT22;34437;-33.956;151.076;2022-12-26T22:40:19;27.20;61.20
48648;DHT22;34437;-33.956;151.076;2022-12-26T22:42:41;27.20;61.20
48648;DHT22;34437;-33.956;151.076;2022-12-26T22:45:04;27.30;61.40
48648;DHT22;34437;-33.956;151.076;2022-12-26T22:47:27;27.30;61.20
48648;DHT22;34437;-33.956;151.076;2022-12-26T22:49:49;27.40;60.90
48648;DHT22;34437;-33.956;151.076;2022-12-26T22:52:12;27.40;61.10
48648;DHT22;34437;-33.956;151.076;2022-12-26T22:54:34;27.50;61.00
48648;DHT22;34437;-33.956;151.076;2022-12-26T22:56:57;27.50;61.40
48648;DHT22;34437;-33.956;151.076;2022-12-26T22:59:19;27.50;61.00
48648;DHT22;34437;-33.956;151.076;2022-12-26T23:01:43;27.60;60.80
48648;DHT22;34437;-33.956;151.076;2022-12-26T23:04:06;27.60;60.40
48648;DHT22;34437;-33.956;151.076;2022-12-26T23:06:31;27.60;60.40
48648;DHT22;34437;-33.956;151.076;2022-12-26T23:08:56;27.70;60.20
48648;DHT22;34437;-33.956;151.076;2022-12-26T23:11:19;27.70;60.00
48648;DHT22;34437;-33.956;151.076;2022-12-26T23:13:42;27.80;60.10
48648;DHT22;34437;-33.956;151.076;2022-12-26T23:18:49;27.80;59.60
48648;DHT22;34437;-33.956;151.076;2022-12-26T23:21:33;27.80;59.50
48648;DHT22;34437;-33.956;151.076;2022-12-26T23:24:17;27.90;59.30
48648;DHT22;34437;-33.956;151.076;2022-12-26T23:26:42;27.90;59.20
48648;DHT22;34437;-33.956;151.076;2022-12-26T23:29:04;27.90;59.20
48648;DHT22;34437;-33.956;151.076;2022-12-26T23:31:45;27.90;59.00
48648;DHT22;34437;-33.956;151.076;2022-12-26T23:34:07;27.90;58.80
48648;DHT22;34437;-33.956;151.076;2022-12-26T23:36:30;27.90;58.90
48648;DHT22;34437;-33.956;151.076;2022-12-26T23:38:53;27.90;59.00
48648;DHT22;34437;-33.956;151.076;2022-12-26T23:41:15;27.90;58.70
48648;DHT22;34437;-33.956;151.076;2022-12-26T23:43:38;27.90;58.40
48648;DHT22;34437;-33.956;151.076;2022-12-26T23:46:00;27.90;58.40
48648;DHT22;34437;-33.956;151.076;2022-12-26T23:48:23;27.90;58.70
48648;DHT22;34437;-33.956;151.076;2022-12-26T23:50:45;28.00;58.90
48648;DHT22;34437;-33.956;151.076;2022-12-26T23:53:07;28.00;58.50
48648;DHT22;34437;-33.956;151.076;2022-12-26T23:55:30;28.00;57.90
48648;DHT22;34437;-33.956;151.076;2022-12-26T23:57:55;28.00;58.40
